sensor_id;sensor_type;location;lat;lon;timestamp;temperature;humidity
28247;DHT22;66191;53.178;22.058;2022-12-18T00:02:19;-7.30;99.20
28247;DHT22;66191;53.178;22.058;2022-12-18T00:05:07;-7.20;99.00
28247;DHT22;66191;53.178;22.058;2022-12-18T00:08:02;-7.20;99.20
28247;DHT22;66191;53.178;22.058;2022-12-18T00:11:10;-7.30;99.10
28247;DHT22;66191;53.178;22.058;2022-12-18T00:14:15;-7.20;99.30
28247;DHT22;66191;53.178;22.058;2022-12-18T00:17:53;-7.20;99.10
28247;DHT22;66191;53.178;22.058;2022-12-18T00:20:59;-7.20;99.40
28247;DHT22;66191;53.178;22.058;2022-12-18T00:24:13;-7.30;99.40
28247;DHT22;66191;53.178;22.058;2022-12-18T00:27:26;-7.30;99.40
28247;DHT22;66191;53.178;22.058;2022-12-18T00:30:43;-7.10;99.40
28247;DHT22;66191;53.178;22.058;2022-12-18T00:34:12;-7.00;99.30
28247;DHT22;66191;53.178;22.058;2022-12-18T00:37:32;-7.00;99.20
28247;DHT22;66191;53.178;22.058;2022-12-18T00:40:19;-7.10;99.00
28247;DHT22;66191;53.178;22.058;2022-12-18T00:42:56;-7.00;99.10
28247;DHT22;66191;53.178;22.058;2022-12-18T00:46:26;-7.00;98.90
28247;DHT22;66191;53.178;22.058;2022-12-18T00:50:16;-7.10;99.00
28247;DHT22;66191;53.178;22.058;2022-12-18T00:54:08;-7.10;99.30
28247;DHT22;66191;53.178;22.058;2022-12-18T00:57:37;-7.00;99.20
28247;DHT22;66191;53.178;22.058;2022-12-18T01:00:47;-6.90;99.40
28247;DHT22;66191;53.178;22.058;2022-12-18T01:04:30;-7.00;99.50
28247;DHT22;66191;53.178;22.058;2022-12-18T01:08:04;-7.00;99.40
28247;DHT22;66191;53.178;22.058;2022-12-18T01:12:14;-7.00;99.40
28247;DHT22;66191;53.178;22.058;2022-12-18T01:15:47;-6.90;99.70
28247;DHT22;66191;53.178;22.058;2022-12-18T01:19:10;-6.90;99.50
28247;DHT22;66191;53.178;22.058;2022-12-18T01:28:54;-6.80;99.90
28247;DHT22;66191;53.178;22.058;2022-12-18T01:32:22;-6.80;99.90
28247;DHT22;66191;53.178;22.058;2022-12-18T01:36:01;-6.90;99.90
28247;DHT22;66191;53.178;22.058;2022-12-18T01:39:44;-6.80;99.90
28247;DHT22;66191;53.178;22.058;2022-12-18T02:28:46;-6.50;99.90
28247;DHT22;66191;53.178;22.058;2022-12-18T02:45:32;-6.60;99.90
28247;DHT22;66191;53.178;22.058;2022-12-18T02:57:19;-6.70;99.90
28247;DHT22;66191;53.178;22.058;2022-12-18T03:04:46;-6.80;99.90
28247;DHT22;66191;53.178;22.058;2022-12-18T03:08:47;-6.80;99.90
28247;DHT22;66191;53.178;22.058;2022-12-18T03:12:46;-6.80;99.90
28247;DHT22;66191;53.178;22.058;2022-12-18T03:20:49;-6.70;99.90
28247;DHT22;66191;53.178;22.058;2022-12-18T03:24:57;-6.70;99.90
28247;DHT22;66191;53.178;22.058;2022-12-18T03:42:29;-6.60;99.90
28247;DHT22;66191;53.178;22.058;2022-12-18T03:56:06;-6.60;99.90
28247;DHT22;66191;53.178;22.058;2022-12-18T04:03:47;-6.50;99.90
28247;DHT22;66191;53.178;22.058;2022-12-18T04:07:02;-6.60;99.90
28247;DHT22;66191;53.178;22.058;2022-12-18T04:14:17;-6.60;99.90
28247;DHT22;66191;53.178;22.058;2022-12-18T04:17:21;-6.50;99.90
28247;DHT22;66191;53.178;22.058;2022-12-18T04:21:14;-6.60;99.90
28247;DHT22;66191;53.178;22.058;2022-12-18T04:32:33;-6.60;99.90
28247;DHT22;66191;53.178;22.058;2022-12-18T04:36:14;-6.60;99.90
28247;DHT22;66191;53.178;22.058;2022-12-18T04:39:18;-6.60;99.90
28247;DHT22;66191;53.178;22.058;2022-12-18T04:42:46;-6.60;99.90
28247;DHT22;66191;53.178;22.058;2022-12-18T04:46:09;-6.60;99.90
28247;DHT22;66191;53.178;22.058;2022-12-18T04:50:06;-6.60;99.90
28247;DHT22;66191;53.178;22.058;2022-12-18T04:53:18;-6.50;99.90
28247;DHT22;66191;53.178;22.058;2022-12-18T04:57:10;-6.40;99.90
28247;DHT22;66191;53.178;22.058;2022-12-18T05:00:33;-6.40;99.90
28247;DHT22;66191;53.178;22.058;2022-12-18T05:04:03;-6.30;99.90
28247;DHT22;66191;53.178;22.058;2022-12-18T05:06:58;-6.40;99.90
28247;DHT22;66191;53.178;22.058;2022-12-18T05:10:27;-6.40;99.90
28247;DHT22;66191;53.178;22.058;2022-12-18T05:13:48;-6.30;99.90
28247;DHT22;66191;53.178;22.058;2022-12-18T05:17:24;-6.40;99.90
28247;DHT22;66191;53.178;22.058;2022-12-18T05:21:19;-6.40;99.90
28247;DHT22;66191;53.178;22.058;2022-12-18T05:24:29;-6.30;99.90
28247;DHT22;66191;53.178;22.058;2022-12-18T05:27:59;-6.30;99.90
28247;DHT22;66191;53.178;22.058;2022-12-18T05:31:13;-6.30;99.90
28247;DHT22;66191;53.178;22.058;2022-12-18T05:34:31;-6.30;99.90
28247;DHT22;66191;53.178;22.058;2022-12-18T05:37:40;-6.30;99.90
28247;DHT22;66191;53.178;22.058;2022-12-18T05:40:48;-6.30;99.90
28247;DHT22;66191;53.178;22.058;2022-12-18T05:48:13;-6.30;99.90
28247;DHT22;66191;53.178;22.058;2022-12-18T05:51:58;-6.20;99.90
28247;DHT22;66191;53.178;22.058;2022-12-18T05:55:11;-6.30;99.90
28247;DHT22;66191;53.178;22.058;2022-12-18T05:58:52;-6.30;99.90
28247;DHT22;66191;53.178;22.058;2022-12-18T06:02:28;-6.30;99.90
28247;DHT22;66191;53.178;22.058;2022-12-18T06:09:49;-6.30;99.90
28247;DHT22;66191;53.178;22.058;2022-12-18T06:20:36;-6.30;99.90
28247;DHT22;66191;53.178;22.058;2022-12-18T06:27:39;-6.20;99.90
28247;DHT22;66191;53.178;22.058;2022-12-18T06:41:56;-6.10;99.90
28247;DHT22;66191;53.178;22.058;2022-12-18T06:45:48;-6.20;99.90
28247;DHT22;66191;53.178;22.058;2022-12-18T06:49:22;-6.20;99.90
28247;DHT22;66191;53.178;22.058;2022-12-18T07:00:17;-6.00;99.90
28247;DHT22;66191;53.178;22.058;2022-12-18T07:03:59;-6.00;99.90
28247;DHT22;66191;53.178;22.058;2022-12-18T07:07:03;-5.90;99.90
28247;DHT22;66191;53.178;22.058;2022-12-18T07:10:27;-5.90;99.90
28247;DHT22;66191;53.178;22.058;2022-12-18T07:17:45;-5.90;99.80
28247;DHT22;66191;53.178;22.058;2022-12-18T07:21:52;-5.80;99.80
28247;DHT22;66191;53.178;22.058;2022-12-18T07:32:53;-5.70;99.40
28247;DHT22;66191;53.178;22.058;2022-12-18T07:37:11;-5.70;99.20
28247;DHT22;66191;53.178;22.058;2022-12-18T08:09:30;-5.60;99.20
28247;DHT22;66191;53.178;22.058;2022-12-18T08:17:12;-5.50;98.70
28247;DHT22;66191;53.178;22.058;2022-12-18T08:20:02;-5.50;98.60
28247;DHT22;66191;53.178;22.058;2022-12-18T08:22:57;-5.50;98.30
28247;DHT22;66191;53.178;22.058;2022-12-18T08:25:57;-5.50;98.30
28247;DHT22;66191;53.178;22.058;2022-12-18T08:29:03;-5.50;98.30
28247;DHT22;66191;53.178;22.058;2022-12-18T08:31:50;-5.60;98.30
28247;DHT22;66191;53.178;22.058;2022-12-18T08:34:54;-5.50;98.70
28247;DHT22;66191;53.178;22.058;2022-12-18T08:37:48;-5.50;98.70
28247;DHT22;66191;53.178;22.058;2022-12-18T08:41:25;-5.40;98.70
28247;DHT22;66191;53.178;22.058;2022-12-18T08:44:29;-5.30;98.20
28247;DHT22;66191;53.178;22.058;2022-12-18T08:48:26;-5.30;98.20
28247;DHT22;66191;53.178;22.058;2022-12-18T08:51:19;-5.30;98.10
28247;DHT22;66191;53.178;22.058;2022-12-18T08:55:06;-5.30;98.40
28247;DHT22;66191;53.178;22.058;2022-12-18T08:59:13;-5.30;98.30
28247;DHT22;66191;53.178;22.058;2022-12-18T09:03:02;-5.20;98.40
28247;DHT22;66191;53.178;22.058;2022-12-18T09:12:05;-5.00;98.40
28247;DHT22;66191;53.178;22.058;2022-12-18T09:15:56;-4.90;97.90
28247;DHT22;66191;53.178;22.058;2022-12-18T09:19:51;-4.80;98.20
28247;DHT22;66191;53.178;22.058;2022-12-18T10:34:10;-3.90;96.80
28247;DHT22;66191;53.178;22.058;2022-12-18T10:37:28;-3.80;96.50
28247;DHT22;66191;53.178;22.058;2022-12-18T10:48:20;-3.80;96.40
28247;DHT22;66191;53.178;22.058;2022-12-18T11:09:37;-4.10;96.30
28247;DHT22;66191;53.178;22.058;2022-12-18T11:12:54;-4.10;96.30
28247;DHT22;66191;53.178;22.058;2022-12-18T11:16:26;-4.10;96.30
28247;DHT22;66191;53.178;22.058;2022-12-18T11:31:48;-3.90;96.40
28247;DHT22;66191;53.178;22.058;2022-12-18T11:35:54;-3.80;96.30
28247;DHT22;66191;53.178;22.058;2022-12-18T11:38:50;-3.80;96.30
28247;DHT22;66191;53.178;22.058;2022-12-18T11:50:10;-3.70;96.40
28247;DHT22;66191;53.178;22.058;2022-12-18T12:02:39;-3.50;96.00
28247;DHT22;66191;53.178;22.058;2022-12-18T12:25:46;-3.70;95.90
28247;DHT22;66191;53.178;22.058;2022-12-18T13:06:40;-4.00;96.10
28247;DHT22;66191;53.178;22.058;2022-12-18T13:10:10;-4.10;96.20
28247;DHT22;66191;53.178;22.058;2022-12-18T13:15:48;-4.20;96.00
28247;DHT22;66191;53.178;22.058;2022-12-18T13:18:32;-4.10;96.10
28247;DHT22;66191;53.178;22.058;2022-12-18T13:21:30;-4.20;96.00
28247;DHT22;66191;53.178;22.058;2022-12-18T13:24:25;-4.20;95.90
28247;DHT22;66191;53.178;22.058;2022-12-18T13:36:47;-4.40;95.90
28247;DHT22;66191;53.178;22.058;2022-12-18T13:43:40;-4.50;96.00
28247;DHT22;66191;53.178;22.058;2022-12-18T13:57:35;-4.80;95.90
28247;DHT22;66191;53.178;22.058;2022-12-18T14:00:46;-4.90;96.20
28247;DHT22;66191;53.178;22.058;2022-12-18T14:10:31;-4.90;96.60
28247;DHT22;66191;53.178;22.058;2022-12-18T14:13:49;-4.90;96.90
28247;DHT22;66191;53.178;22.058;2022-12-18T14:21:27;-4.90;97.10
28247;DHT22;66191;53.178;22.058;2022-12-18T15:09:35;-4.50;97.30
28247;DHT22;66191;53.178;22.058;2022-12-18T15:17:30;-4.60;97.60
28247;DHT22;66191;53.178;22.058;2022-12-18T15:44:40;-4.50;98.00
28247;DHT22;66191;53.178;22.058;2022-12-18T15:52:01;-4.50;97.90
28247;DHT22;66191;53.178;22.058;2022-12-18T16:08:57;-4.50;98.00
28247;DHT22;66191;53.178;22.058;2022-12-18T16:11:37;-4.50;98.30
28247;DHT22;66191;53.178;22.058;2022-12-18T16:15:27;-4.50;98.50
28247;DHT22;66191;53.178;22.058;2022-12-18T16:18:46;-4.50;98.50
28247;DHT22;66191;53.178;22.058;2022-12-18T16:21:54;-4.50;98.40
28247;DHT22;66191;53.178;22.058;2022-12-18T16:31:59;-4.30;98.60
28247;DHT22;66191;53.178;22.058;2022-12-18T16:35:07;-4.30;98.60
28247;DHT22;66191;53.178;22.058;2022-12-18T16:38:41;-4.30;98.50
28247;DHT22;66191;53.178;22.058;2022-12-18T16:45:47;-4.20;98.90
28247;DHT22;66191;53.178;22.058;2022-12-18T16:48:43;-4.20;98.70
28247;DHT22;66191;53.178;22.058;2022-12-18T16:51:55;-4.20;98.80
28247;DHT22;66191;53.178;22.058;2022-12-18T16:54:55;-4.10;98.90
28247;DHT22;66191;53.178;22.058;2022-12-18T16:57:59;-4.10;98.70
28247;DHT22;66191;53.178;22.058;2022-12-18T17:01:29;-4.10;98.80
28247;DHT22;66191;53.178;22.058;2022-12-18T17:04:39;-4.10;98.90
28247;DHT22;66191;53.178;22.058;2022-12-18T17:07:35;-4.00;98.90
28247;DHT22;66191;53.178;22.058;2022-12-18T17:10:33;-4.00;98.90
28247;DHT22;66191;53.178;22.058;2022-12-18T17:13:12;-4.00;98.90
28247;DHT22;66191;53.178;22.058;2022-12-18T17:16:20;-4.00;98.90
28247;DHT22;66191;53.178;22.058;2022-12-18T17:19:02;-3.90;99.20
28247;DHT22;66191;53.178;22.058;2022-12-18T17:22:32;-3.90;99.10
28247;DHT22;66191;53.178;22.058;2022-12-18T17:25:30;-3.90;99.30
28247;DHT22;66191;53.178;22.058;2022-12-18T17:28:34;-3.90;99.10
28247;DHT22;66191;53.178;22.058;2022-12-18T18:35:43;-3.30;99.80
28247;DHT22;66191;53.178;22.058;2022-12-18T18:38:39;-3.30;99.70
28247;DHT22;66191;53.178;22.058;2022-12-18T18:41:46;-3.30;99.80
28247;DHT22;66191;53.178;22.058;2022-12-18T18:48:08;-3.30;99.80
28247;DHT22;66191;53.178;22.058;2022-12-18T18:51:25;-3.30;99.90
28247;DHT22;66191;53.178;22.058;2022-12-18T18:55:21;-3.30;99.90
28247;DHT22;66191;53.178;22.058;2022-12-18T18:58:50;-3.20;99.90
28247;DHT22;66191;53.178;22.058;2022-12-18T19:02:50;-3.20;99.90
28247;DHT22;66191;53.178;22.058;2022-12-18T19:06:37;-3.30;99.90
28247;DHT22;66191;53.178;22.058;2022-12-18T19:21:35;-3.20;99.80
28247;DHT22;66191;53.178;22.058;2022-12-18T20:10:41;-3.40;99.50
28247;DHT22;66191;53.178;22.058;2022-12-18T20:14:15;-3.40;99.30
28247;DHT22;66191;53.178;22.058;2022-12-18T20:17:20;-3.40;99.20
28247;DHT22;66191;53.178;22.058;2022-12-18T20:24:51;-3.30;99.30
28247;DHT22;66191;53.178;22.058;2022-12-18T20:52:42;-3.40;99.10
28247;DHT22;66191;53.178;22.058;2022-12-18T20:55:10;-3.40;99.30
28247;DHT22;66191;53.178;22.058;2022-12-18T20:57:38;-3.40;99.30
28247;DHT22;66191;53.178;22.058;2022-12-18T21:05:43;-3.40;99.20
28247;DHT22;66191;53.178;22.058;2022-12-18T21:08:15;-3.40;99.10
28247;DHT22;66191;53.178;22.058;2022-12-18T21:10:46;-3.40;99.20
28247;DHT22;66191;53.178;22.058;2022-12-18T21:13:17;-3.40;99.30
28247;DHT22;66191;53.178;22.058;2022-12-18T21:15:51;-3.40;99.20
28247;DHT22;66191;53.178;22.058;2022-12-18T21:18:25;-3.40;99.20
28247;DHT22;66191;53.178;22.058;2022-12-18T21:20:59;-3.40;99.20
28247;DHT22;66191;53.178;22.058;2022-12-18T21:23:31;-3.40;99.20
28247;DHT22;66191;53.178;22.058;2022-12-18T21:26:15;-3.40;99.20
28247;DHT22;66191;53.178;22.058;2022-12-18T21:28:47;-3.40;99.30
28247;DHT22;66191;53.178;22.058;2022-12-18T21:31:18;-3.40;99.20
28247;DHT22;66191;53.178;22.058;2022-12-18T21:33:51;-3.40;99.10
28247;DHT22;66191;53.178;22.058;2022-12-18T21:36:32;-3.40;99.20
28247;DHT22;66191;53.178;22.058;2022-12-18T21:39:04;-3.40;99.10
28247;DHT22;66191;53.178;22.058;2022-12-18T21:41:37;-3.40;99.10
28247;DHT22;66191;53.178;22.058;2022-12-18T21:44:23;-3.40;99.10
28247;DHT22;66191;53.178;22.058;2022-12-18T21:46:54;-3.40;99.00
28247;DHT22;66191;53.178;22.058;2022-12-18T21:49:39;-3.40;99.00
28247;DHT22;66191;53.178;22.058;2022-12-18T21:52:13;-3.40;99.00
28247;DHT22;66191;53.178;22.058;2022-12-18T21:54:45;-3.40;99.00
28247;DHT22;66191;53.178;22.058;2022-12-18T21:57:16;-3.40;99.00
28247;DHT22;66191;53.178;22.058;2022-12-18T21:59:51;-3.40;99.00
28247;DHT22;66191;53.178;22.058;2022-12-18T22:02:22;-3.40;99.00
28247;DHT22;66191;53.178;22.058;2022-12-18T22:04:57;-3.30;99.10
28247;DHT22;66191;53.178;22.058;2022-12-18T22:07:31;-3.30;99.00
28247;DHT22;66191;53.178;22.058;2022-12-18T22:10:03;-3.30;99.00
28247;DHT22;66191;53.178;22.058;2022-12-18T22:12:34;-3.30;99.10
28247;DHT22;66191;53.178;22.058;2022-12-18T22:15:12;-3.30;99.10
28247;DHT22;66191;53.178;22.058;2022-12-18T22:17:49;-3.30;99.00
28247;DHT22;66191;53.178;22.058;2022-12-18T22:20:27;-3.20;99.10
28247;DHT22;66191;53.178;22.058;2022-12-18T22:23:01;-3.30;99.00
28247;DHT22;66191;53.178;22.058;2022-12-18T22:25:33;-3.30;99.00
28247;DHT22;66191;53.178;22.058;2022-12-18T22:28:06;-3.20;99.10
28247;DHT22;66191;53.178;22.058;2022-12-18T22:30:50;-3.20;99.10
28247;DHT22;66191;53.178;22.058;2022-12-18T22:33:26;-3.30;99.10
28247;DHT22;66191;53.178;22.058;2022-12-18T22:36:04;-3.20;99.00
28247;DHT22;66191;53.178;22.058;2022-12-18T22:38:37;-3.20;98.90
28247;DHT22;66191;53.178;22.058;2022-12-18T22:41:09;-3.20;98.90
28247;DHT22;66191;53.178;22.058;2022-12-18T22:43:40;-3.30;98.70
28247;DHT22;66191;53.178;22.058;2022-12-18T22:46:14;-3.20;98.80
28247;DHT22;66191;53.178;22.058;2022-12-18T22:48:45;-3.20;98.80
28247;DHT22;66191;53.178;22.058;2022-12-18T22:51:18;-3.20;98.80
28247;DHT22;66191;53.178;22.058;2022-12-18T22:53:52;-3.30;98.90
28247;DHT22;66191;53.178;22.058;2022-12-18T22:56:23;-3.20;98.90
28247;DHT22;66191;53.178;22.058;2022-12-18T22:58:54;-3.20;98.80
28247;DHT22;66191;53.178;22.058;2022-12-18T23:01:27;-3.20;98.60
28247;DHT22;66191;53.178;22.058;2022-12-18T23:03:59;-3.30;98.60
28247;DHT22;66191;53.178;22.058;2022-12-18T23:06:31;-3.30;98.60
28247;DHT22;66191;53.178;22.058;2022-12-18T23:09:04;-3.30;98.50
28247;DHT22;66191;53.178;22.058;2022-12-18T23:11:36;-3.30;98.50
28247;DHT22;66191;53.178;22.058;2022-12-18T23:14:07;-3.30;98.50
28247;DHT22;66191;53.178;22.058;2022-12-18T23:16:39;-3.30;98.50
28247;DHT22;66191;53.178;22.058;2022-12-18T23:19:12;-3.30;98.40
28247;DHT22;66191;53.178;22.058;2022-12-18T23:21:45;-3.30;98.30
28247;DHT22;66191;53.178;22.058;2022-12-18T23:24:19;-3.40;98.20
28247;DHT22;66191;53.178;22.058;2022-12-18T23:26:50;-3.40;98.20
28247;DHT22;66191;53.178;22.058;2022-12-18T23:29:21;-3.40;98.10
28247;DHT22;66191;53.178;22.058;2022-12-18T23:31:53;-3.40;98.20
28247;DHT22;66191;53.178;22.058;2022-12-18T23:34:24;-3.40;98.20
28247;DHT22;66191;53.178;22.058;2022-12-18T23:36:55;-3.40;98.20
28247;DHT22;66191;53.178;22.058;2022-12-18T23:39:30;-3.50;98.20
28247;DHT22;66191;53.178;22.058;2022-12-18T23:42:02;-3.50;98.30
28247;DHT22;66191;53.178;22.058;2022-12-18T23:44:33;-3.50;98.20
28247;DHT22;66191;53.178;22.058;2022-12-18T23:47:04;-3.50;98.20
28247;DHT22;66191;53.178;22.058;2022-12-18T23:49:35;-3.60;98.10
28247;DHT22;66191;53.178;22.058;2022-12-18T23:52:06;-3.60;98.10
28247;DHT22;66191;53.178;22.058;2022-12-18T23:54:40;-3.70;98.20
28247;DHT22;66191;53.178;22.058;2022-12-18T23:57:12;-3.70;98.30
28247;DHT22;66191;53.178;22.058;2022-12-18T23:59:45;-3.70;98.10
